Time;durP1;ratioP1;P1;durP2;ratioP2;P2;SDS_P1;SDS_P2;PMS_P1;PMS_P2;Temp;Humidity;BMP_temperature;BMP_pressure;BME280_temperature;BME280_humidity;BME280_pressure;Samples;Min_cycle;Max_cycle;Signal;HPM_P1;HPM_P2
2023/08/16 00:01:52;;;;;;;1.93;1.73;;;;;;;21.46;74.25;99087.41;5118290;27;40250;-81
2023/08/16 00:04:20;;;;;;;3.33;2.20;;;;;;;21.42;74.47;99079.78;5136851;27;42229;-81
2023/08/16 00:06:48;;;;;;;1.90;1.73;;;;;;;21.38;74.61;99079.28;5136772;27;43317;-81
2023/08/16 00:09:16;;;;;;;3.93;2.43;;;;;;;21.36;74.56;99069.66;5117991;27;42288;-80
2023/08/16 00:11:44;;;;;;;2.00;1.90;;;;;;;21.34;74.99;99068.97;5099850;27;38733;-82
2023/08/16 00:14:11;;;;;;;2.70;2.10;;;;;;;21.32;75.94;99061.03;5117547;27;41013;-81
2023/08/16 00:16:40;;;;;;;3.33;2.23;;;;;;;21.33;75.70;99069.97;5116563;27;41872;-80
2023/08/16 00:19:09;;;;;;;2.47;2.27;;;;;;;21.31;75.76;99061.19;5099900;27;41019;-82
2023/08/16 00:21:37;;;;;;;1.93;1.83;;;;;;;21.29;75.36;99069.44;5117055;27;39214;-81
2023/08/16 00:24:06;;;;;;;1.70;1.60;;;;;;;21.29;75.46;99068.59;5100201;27;41420;-80
2023/08/16 00:26:33;;;;;;;2.07;1.87;;;;;;;21.25;75.42;99064.53;5116809;27;41718;-80
2023/08/16 00:29:03;;;;;;;1.90;1.70;;;;;;;21.24;75.19;99066.38;5099009;27;41365;-81
2023/08/16 00:31:31;;;;;;;2.93;2.23;;;;;;;21.23;75.17;99063.84;5117017;27;40190;-81
2023/08/16 00:33:58;;;;;;;2.80;1.70;;;;;;;21.10;75.17;99046.22;5116825;27;41922;-79
2023/08/16 00:36:27;;;;;;;2.90;2.20;;;;;;;21.17;75.42;99066.13;5135380;27;43516;-82
2023/08/16 00:38:55;;;;;;;2.03;1.87;;;;;;;21.15;75.32;99062.75;5115939;27;42138;-80
2023/08/16 00:41:22;;;;;;;2.17;1.80;;;;;;;21.12;75.17;99056.84;5101515;27;38723;-82
2023/08/16 00:43:50;;;;;;;2.00;1.80;;;;;;;21.10;75.22;99067.78;5100666;27;41734;-80
2023/08/16 00:46:19;;;;;;;2.67;2.37;;;;;;;20.90;75.30;99042.03;5100580;27;41755;-82
2023/08/16 00:48:47;;;;;;;2.63;2.20;;;;;;;21.06;75.50;99069.09;5100674;27;41112;-81
2023/08/16 00:51:15;;;;;;;2.43;2.23;;;;;;;21.04;75.93;99060.31;5100618;27;38993;-82
2023/08/16 00:53:46;;;;;;;2.27;2.07;;;;;;;20.92;75.95;99040.03;5118028;27;41330;-81
2023/08/16 00:56:15;;;;;;;2.27;2.07;;;;;;;20.99;75.82;99059.97;5114759;27;42808;-80
2023/08/16 00:58:44;;;;;;;2.93;2.10;;;;;;;20.99;75.98;99057.25;5100744;27;40952;-80
2023/08/16 01:01:11;;;;;;;2.00;1.90;;;;;;;20.96;75.94;99054.88;5117513;27;40377;-80
2023/08/16 01:03:40;;;;;;;3.03;2.13;;;;;;;20.97;76.01;99061.94;5100513;27;40355;-81
2023/08/16 01:06:07;;;;;;;2.20;1.90;;;;;;;20.95;75.76;99063.94;5116433;27;43714;-82
2023/08/16 01:08:35;;;;;;;2.20;2.00;;;;;;;20.83;76.25;99046.34;5098862;27;41103;-81
2023/08/16 01:11:08;;;;;;;3.20;2.23;;;;;;;20.92;76.81;99049.94;5116213;27;39802;-82
2023/08/16 01:13:46;;;;;;;2.03;1.93;;;;;;;20.73;78.00;99018.69;5116412;27;41735;-82
2023/08/16 01:16:16;;;;;;;2.33;2.13;;;;;;;20.90;77.67;99057.34;5099208;27;41527;-83
2023/08/16 01:18:44;;;;;;;2.93;2.00;;;;;;;20.87;77.42;99053.13;5099438;27;40939;-82
2023/08/16 01:21:14;;;;;;;2.30;2.10;;;;;;;20.85;77.95;99044.34;5099334;27;39132;-81
2023/08/16 01:23:55;;;;;;;2.77;2.20;;;;;;;20.77;77.67;99037.03;5098706;27;40864;-81
2023/08/16 01:26:28;;;;;;;2.33;2.13;;;;;;;20.76;77.72;99034.53;5098886;27;42855;-81
2023/08/16 01:28:58;;;;;;;2.30;2.10;;;;;;;20.75;77.75;99030.16;5098223;27;41271;-81
2023/08/16 01:31:26;;;;;;;2.30;2.10;;;;;;;20.78;77.62;99037.88;5116393;27;39789;-83
2023/08/16 01:33:54;;;;;;;3.20;2.07;;;;;;;20.83;77.79;99049.06;5098944;27;41681;-80
2023/08/16 01:36:21;;;;;;;2.50;2.30;;;;;;;20.83;78.14;99051.75;5099035;27;43149;-82
2023/08/16 01:38:49;;;;;;;2.00;1.90;;;;;;;20.73;78.09;99034.84;5115383;27;43164;-80
2023/08/16 01:41:23;;;;;;;2.50;2.30;;;;;;;20.81;78.33;99061.81;5099857;27;39575;-82
2023/08/16 01:43:55;;;;;;;2.17;2.07;;;;;;;20.79;77.66;99066.50;5099483;27;40735;-81
2023/08/16 01:46:26;;;;;;;3.37;2.20;;;;;;;20.75;78.05;99057.06;5113952;27;42695;-80
2023/08/16 01:48:56;;;;;;;2.43;2.17;;;;;;;20.63;78.04;99047.53;5099290;27;41472;-80
2023/08/16 01:51:24;;;;;;;2.23;2.03;;;;;;;20.58;77.93;99044.47;5135091;27;40885;-80
2023/08/16 01:53:53;;;;;;;2.33;2.13;;;;;;;20.47;77.91;99025.88;5116832;27;42198;-82
2023/08/16 01:56:22;;;;;;;2.33;2.13;;;;;;;20.62;78.13;99059.31;5134903;27;42713;-81
2023/08/16 01:58:49;;;;;;;2.43;2.23;;;;;;;20.59;77.79;99056.91;5099448;27;42336;-82
2023/08/16 02:01:18;;;;;;;2.67;2.47;;;;;;;20.54;78.04;99049.28;5099864;27;40211;-81
2023/08/16 02:03:46;;;;;;;2.07;1.90;;;;;;;20.37;77.88;99034.88;5134716;27;42895;-82
2023/08/16 02:06:14;;;;;;;1.70;1.60;;;;;;;20.38;77.87;99035.72;5099374;27;42854;-80
2023/08/16 02:08:41;;;;;;;2.60;2.30;;;;;;;20.32;78.13;99020.97;5098864;27;41141;-82
2023/08/16 02:11:09;;;;;;;2.40;2.20;;;;;;;20.41;77.87;99024.63;5097495;27;39502;-80
2023/08/16 02:13:36;;;;;;;2.03;1.93;;;;;;;20.39;77.83;99032.88;5098131;27;40998;-83
2023/08/16 02:16:04;;;;;;;1.80;1.70;;;;;;;20.31;77.93;99018.44;5115248;27;42917;-81
2023/08/16 02:18:33;;;;;;;2.17;1.97;;;;;;;20.34;77.85;99029.75;5097987;27;41710;-80
2023/08/16 02:21:01;;;;;;;2.50;2.23;;;;;;;20.34;81.18;99029.75;5098006;27;38834;-82
2023/08/16 02:23:28;;;;;;;3.50;2.93;;;;;;;20.31;82.22;99030.06;5114100;27;41679;-80
2023/08/16 02:25:56;;;;;;;2.67;2.40;;;;;;;20.27;81.98;99028.69;5133263;27;42660;-81
2023/08/16 02:28:25;;;;;;;3.00;2.80;;;;;;;20.20;81.31;99016.84;5114388;27;41687;-81
2023/08/16 02:30:53;;;;;;;2.90;2.70;;;;;;;20.20;80.90;99016.84;5114802;27;40103;-82
2023/08/16 02:33:20;;;;;;;2.80;2.60;;;;;;;20.29;80.60;99031.19;5133206;27;41209;-81
2023/08/16 02:35:50;;;;;;;3.10;2.50;;;;;;;20.28;80.52;99032.19;5097923;27;41792;-81
2023/08/16 02:38:18;;;;;;;2.67;2.23;;;;;;;20.27;80.21;99028.69;5114573;27;41095;-79
2023/08/16 02:40:45;;;;;;;2.20;2.00;;;;;;;20.21;79.99;99018.53;5098351;27;38772;-81
2023/08/16 02:43:13;;;;;;;2.93;2.40;;;;;;;20.24;79.92;99023.59;5116263;27;41816;-82
2023/08/16 02:45:40;;;;;;;2.27;2.07;;;;;;;19.97;79.57;98977.94;5099094;27;41727;-81
2023/08/16 02:48:09;;;;;;;2.93;2.40;;;;;;;20.05;79.50;98995.00;5115665;27;41995;-83
2023/08/16 02:50:37;;;;;;;2.10;2.00;;;;;;;20.17;79.25;99017.13;5116404;27;40902;-83
2023/08/16 02:53:06;;;;;;;2.63;2.03;;;;;;;20.07;79.31;99000.22;5133986;27;41725;-81
2023/08/16 02:55:34;;;;;;;2.23;2.03;;;;;;;20.15;79.48;99023.69;5098867;27;42052;-82
2023/08/16 02:58:01;;;;;;;2.23;2.03;;;;;;;20.13;79.38;99028.34;5099031;27;41178;-81
2023/08/16 03:00:29;;;;;;;3.80;2.27;;;;;;;20.12;79.54;99035.59;5116225;27;40620;-83
2023/08/16 03:02:57;;;;;;;2.40;2.00;;;;;;;20.04;79.51;99025.56;5098025;27;42259;-82
2023/08/16 03:05:24;;;;;;;2.37;2.17;;;;;;;19.96;79.56;99021.94;5115651;27;42988;-82
2023/08/16 03:07:53;;;;;;;2.10;1.90;;;;;;;20.07;79.81;99038.72;5115528;27;43171;-82
2023/08/16 03:10:22;;;;;;;2.10;1.80;;;;;;;19.95;79.71;99033.69;5114057;27;40051;-82
2023/08/16 03:12:50;;;;;;;3.53;2.23;;;;;;;20.05;79.59;99055.97;5097381;27;41238;-83
2023/08/16 03:15:18;;;;;;;3.23;2.93;;;;;;;20.03;79.92;99052.59;5114757;27;42931;-82
2023/08/16 03:17:45;;;;;;;2.33;2.10;;;;;;;19.96;79.99;99043.44;5114370;27;43138;-80
2023/08/16 03:20:13;;;;;;;2.30;2.10;;;;;;;19.85;79.72;99016.78;5114611;27;39961;-80
2023/08/16 03:22:40;;;;;;;2.50;2.30;;;;;;;20.02;79.57;99048.25;5114035;27;42630;-81
2023/08/16 03:25:09;;;;;;;2.57;2.03;;;;;;;19.98;79.77;99047.69;5114029;27;42650;-81
2023/08/16 03:27:38;;;;;;;2.17;1.97;;;;;;;20.00;79.85;99050.22;5114006;27;42943;-82
2023/08/16 03:30:06;;;;;;;3.50;1.90;;;;;;;19.99;80.01;99045.84;5113785;27;39704;-81
2023/08/16 03:32:34;;;;;;;3.67;2.70;;;;;;;19.98;80.71;99046.84;5114159;27;41594;-80
2023/08/16 03:35:03;;;;;;;2.57;2.37;;;;;;;19.97;80.81;99061.28;5116287;27;42832;-81
2023/08/16 03:37:31;;;;;;;2.63;2.30;;;;;;;19.97;80.55;99055.91;5117943;27;42428;-81
2023/08/16 03:39:59;;;;;;;2.10;1.90;;;;;;;19.96;80.69;99056.91;5117929;27;40837;-80
2023/08/16 03:42:27;;;;;;;2.60;2.40;;;;;;;19.96;80.62;99048.84;5101344;27;42208;-80
2023/08/16 03:44:56;;;;;;;3.17;2.47;;;;;;;19.73;80.59;99022.38;5118990;27;43693;-80
2023/08/16 03:47:23;;;;;;;3.20;2.47;;;;;;;19.94;80.57;99064.25;5118405;27;42180;-81
2023/08/16 03:49:51;;;;;;;2.43;2.23;;;;;;;19.94;80.72;99075.00;5101990;27;38813;-81
2023/08/16 03:52:18;;;;;;;3.03;2.10;;;;;;;19.93;80.54;99078.69;5101270;27;41419;-82
2023/08/16 03:54:46;;;;;;;2.27;2.07;;;;;;;19.90;80.65;99068.25;5118910;27;41971;-82
2023/08/16 03:57:13;;;;;;;3.17;2.60;;;;;;;19.92;80.31;99077.00;5101314;27;41147;-81
2023/08/16 03:59:41;;;;;;;2.50;2.17;;;;;;;19.91;80.30;99086.06;5101785;27;38428;-82
2023/08/16 04:02:10;;;;;;;2.87;2.57;;;;;;;19.81;80.34;99074.50;5118655;27;41632;-81
2023/08/16 04:04:37;;;;;;;2.87;2.10;;;;;;;19.83;80.65;99076.06;5118474;27;43866;-80
2023/08/16 04:07:05;;;;;;;2.70;2.50;;;;;;;19.89;80.42;99088.91;5118312;27;42261;-80
2023/08/16 04:09:32;;;;;;;2.43;2.23;;;;;;;19.91;80.58;99094.13;5135210;27;40714;-80
2023/08/16 04:12:00;;;;;;;2.30;2.10;;;;;;;19.91;80.69;99096.81;5099329;27;40656;-81
2023/08/16 04:14:27;;;;;;;2.20;2.00;;;;;;;19.84;80.58;99074.22;5117028;27;41561;-80
2023/08/16 04:16:57;;;;;;;2.70;2.20;;;;;;;19.90;80.69;99084.41;5117089;27;40983;-82
2023/08/16 04:19:26;;;;;;;3.00;2.60;;;;;;;19.99;81.01;99095.09;5100001;27;39233;-80
2023/08/16 04:21:53;;;;;;;2.77;2.30;;;;;;;20.04;80.74;99108.06;5117154;27;42788;-82
2023/08/16 04:24:21;;;;;;;2.43;2.17;;;;;;;20.00;81.00;99095.94;5099866;27;43106;-80
2023/08/16 04:26:48;;;;;;;2.80;2.60;;;;;;;19.94;81.00;99077.69;5099356;27;41019;-82
2023/08/16 04:29:16;;;;;;;2.47;2.27;;;;;;;20.19;80.88;99109.25;5098882;27;38905;-82
2023/08/16 04:31:44;;;;;;;2.63;2.43;;;;;;;20.27;81.07;99106.69;5099614;27;40746;-82
2023/08/16 04:34:11;;;;;;;2.93;2.60;;;;;;;20.35;80.59;99104.09;5099513;27;41916;-82
2023/08/16 04:36:40;;;;;;;2.20;2.00;;;;;;;20.44;80.49;99113.09;5098791;27;42306;-81
2023/08/16 04:39:08;;;;;;;3.23;2.70;;;;;;;20.51;80.18;99113.34;5099357;27;39857;-81
2023/08/16 04:41:36;;;;;;;2.80;2.30;;;;;;;20.55;80.30;99114.72;5118387;27;42672;-83
2023/08/16 04:44:04;;;;;;;3.10;2.63;;;;;;;20.47;80.16;99099.34;5100795;27;41777;-82
2023/08/16 04:46:32;;;;;;;2.57;2.37;;;;;;;20.54;80.58;99110.34;5099917;27;41561;-81
2023/08/16 04:49:00;;;;;;;2.40;2.20;;;;;;;20.61;80.25;99127.56;5100632;27;39761;-82
2023/08/16 04:51:28;;;;;;;2.70;2.50;;;;;;;20.64;80.58;99121.91;5116397;27;42539;-82
2023/08/16 04:53:57;;;;;;;2.47;2.27;;;;;;;20.68;80.74;99117.88;5115936;27;42697;-81
2023/08/16 04:56:25;;;;;;;2.43;2.23;;;;;;;20.73;80.61;99115.59;5099333;27;41407;-83
2023/08/16 04:58:52;;;;;;;2.80;2.60;;;;;;;20.76;80.98;99120.66;5116578;27;40931;-82
2023/08/16 05:01:20;;;;;;;2.80;2.60;;;;;;;20.81;80.58;99129.13;5116668;27;41664;-82
2023/08/16 05:03:50;;;;;;;2.60;2.40;;;;;;;20.84;80.65;99112.66;5099037;27;41933;-82
2023/08/16 05:06:19;;;;;;;2.60;2.40;;;;;;;21.02;80.45;99129.63;5113676;27;42989;-84
2023/08/16 05:08:48;;;;;;;2.60;2.40;;;;;;;21.13;80.35;99129.41;5099044;27;38925;-83
2023/08/16 05:11:19;;;;;;;3.07;2.80;;;;;;;21.22;80.77;99126.81;5116274;27;42094;-82
2023/08/16 05:13:47;;;;;;;2.80;2.60;;;;;;;21.31;80.81;99121.31;5116264;27;42449;-81
2023/08/16 05:16:16;;;;;;;2.60;2.40;;;;;;;21.40;80.30;99127.59;5116277;27;43221;-81
2023/08/16 05:18:43;;;;;;;2.70;2.50;;;;;;;21.46;80.32;99135.06;5115976;27;40075;-82
2023/08/16 05:21:10;;;;;;;2.53;2.33;;;;;;;21.51;80.29;99138.16;5099206;27;41760;-80
2023/08/16 05:23:38;;;;;;;2.50;2.30;;;;;;;21.53;80.91;99136.09;5115774;27;41874;-82
2023/08/16 05:26:06;;;;;;;2.70;2.50;;;;;;;21.49;80.94;99129.38;5098398;27;42339;-81
2023/08/16 05:28:35;;;;;;;3.23;2.50;;;;;;;21.41;81.10;99110.44;5115271;27;40547;-83
2023/08/16 05:31:09;;;;;;;3.70;2.90;;;;;;;21.45;80.62;99118.06;5115908;27;41681;-87
2023/08/16 05:33:37;;;;;;;3.70;2.40;;;;;;;21.52;80.66;99134.41;5115842;27;41667;-88
2023/08/16 05:36:05;;;;;;;2.77;2.37;;;;;;;21.62;80.89;99129.78;5116049;27;42420;-89
2023/08/16 05:38:32;;;;;;;4.33;2.67;;;;;;;21.59;80.64;99119.31;5098938;27;40167;-89
2023/08/16 05:41:03;;;;;;;3.53;3.00;;;;;;;21.80;80.39;99138.63;5099671;27;41867;-89
2023/08/16 05:43:30;;;;;;;2.43;2.23;;;;;;;21.84;80.47;99140.03;5099825;27;41650;-88
2023/08/16 05:46:00;;;;;;;3.57;2.40;;;;;;;21.88;80.07;99118.13;5099103;27;41586;-83
2023/08/16 05:48:28;;;;;;;2.40;2.20;;;;;;;22.03;80.14;99133.56;5099504;27;39305;-84
2023/08/16 05:50:55;;;;;;;2.83;2.63;;;;;;;22.10;80.06;99122.97;5099174;27;40207;-85
2023/08/16 05:53:23;;;;;;;2.80;2.60;;;;;;;22.43;79.37;99132.88;5116132;27;42871;-83
2023/08/16 05:55:50;;;;;;;2.83;2.10;;;;;;;22.77;78.32;99121.16;5132645;27;42954;-84
2023/08/16 05:58:18;;;;;;;2.60;2.40;;;;;;;22.94;78.12;99112.06;5115611;27;40752;-81
2023/08/16 06:00:47;;;;;;;2.47;2.13;;;;;;;23.17;78.07;99123.88;5115233;27;40764;-81
2023/08/16 06:03:17;;;;;;;2.53;2.33;;;;;;;23.20;78.04;99112.75;5097983;27;44168;-86
2023/08/16 06:05:44;;;;;;;3.20;2.90;;;;;;;23.20;77.65;99098.38;5102842;27;41032;-86
2023/08/16 06:08:12;;;;;;;4.13;3.43;;;;;;;23.47;76.55;99132.31;5102248;27;38966;-80
2023/08/16 06:10:39;;;;;;;3.83;3.43;;;;;;;23.48;76.46;99112.38;5115909;27;40592;-89
2023/08/16 06:13:07;;;;;;;4.33;3.53;;;;;;;23.60;76.45;99108.31;5098635;27;42744;-79
2023/08/16 06:15:34;;;;;;;4.00;2.90;;;;;;;23.79;76.02;99132.25;5114648;27;42270;-78
2023/08/16 06:18:02;;;;;;;3.17;2.70;;;;;;;23.93;75.59;99133.41;5132766;27;40874;-81
2023/08/16 06:20:30;;;;;;;4.27;3.40;;;;;;;24.02;75.02;99118.81;5097317;27;41301;-78
2023/08/16 06:22:58;;;;;;;5.70;3.40;;;;;;;24.24;74.55;99122.66;5114814;27;41877;-85
2023/08/16 06:25:26;;;;;;;4.07;3.50;;;;;;;24.36;73.38;99117.72;5115226;27;42395;-90
2023/08/16 06:27:53;;;;;;;3.20;2.90;;;;;;;24.53;73.74;99132.84;5098037;27;39042;-86
2023/08/16 06:30:21;;;;;;;3.80;3.17;;;;;;;24.53;73.37;99122.84;5098930;27;40566;-87
2023/08/16 06:32:49;;;;;;;4.60;3.33;;;;;;;24.77;71.84;99110.16;5097981;27;41946;-85
2023/08/16 06:35:17;;;;;;;4.87;3.57;;;;;;;25.05;70.82;99117.59;5098038;27;41028;-83
2023/08/16 06:37:47;;;;;;;4.03;3.20;;;;;;;25.36;70.72;99144.59;5097967;27;40031;-81
2023/08/16 06:40:15;;;;;;;4.17;3.07;;;;;;;25.28;69.46;99117.56;5098442;27;41781;-90
2023/08/16 06:42:42;;;;;;;3.63;3.33;;;;;;;25.79;69.06;99141.34;5115745;27;42887;-89
2023/08/16 06:45:10;;;;;;;3.37;3.07;;;;;;;26.16;68.62;99126.84;5116348;27;43235;-86
2023/08/16 06:47:38;;;;;;;3.17;2.87;;;;;;;26.46;68.45;99126.63;5098704;27;39840;-85
2023/08/16 06:50:06;;;;;;;3.97;3.00;;;;;;;26.64;66.86;99126.22;5098824;27;41012;-87
2023/08/16 06:52:34;;;;;;;4.23;3.10;;;;;;;26.81;66.62;99124.09;5098699;27;43320;-86
2023/08/16 06:55:03;;;;;;;3.57;3.13;;;;;;;27.05;66.33;99137.34;5115996;27;42229;-83
2023/08/16 06:57:31;;;;;;;3.73;3.43;;;;;;;27.13;64.93;99128.19;5098503;27;39072;-83
2023/08/16 06:59:59;;;;;;;3.17;2.83;;;;;;;27.22;65.41;99127.03;5099001;27;40749;-85
2023/08/16 07:02:26;;;;;;;5.20;3.33;;;;;;;27.37;65.38;99133.22;5115418;27;41709;-88
2023/08/16 07:04:54;;;;;;;3.90;3.00;;;;;;;27.38;64.22;99134.91;5098715;27;41409;-87
2023/08/16 07:07:22;;;;;;;4.20;3.43;;;;;;;27.46;64.94;99153.81;5098669;27;40001;-81
2023/08/16 07:09:50;;;;;;;4.17;3.17;;;;;;;27.13;64.26;99128.19;5098752;27;40595;-87
2023/08/16 07:12:19;;;;;;;3.23;2.93;;;;;;;27.13;64.65;99147.25;5098691;27;42696;-82
2023/08/16 07:14:48;;;;;;;3.47;2.93;;;;;;;27.18;64.92;99156.50;5098475;27;42724;-86
2023/08/16 07:17:16;;;;;;;3.00;2.70;;;;;;;26.97;65.81;99142.88;5095816;27;39632;-85
2023/08/16 07:19:49;;;;;;;3.30;3.00;;;;;;;27.05;66.15;99155.53;5097621;27;40542;-89
2023/08/16 07:22:27;;;;;;;;;;;;;;;;;;;;;
2023/08/16 07:24:57;;;;;;;2.63;2.43;;;;;;;27.01;65.21;99097.97;5097761;27;41036;-90
2023/08/16 07:27:27;;;;;;;3.27;2.87;;;;;;;27.82;64.81;99163.72;5097139;27;39203;-90
2023/08/16 07:29:58;;;;;;;3.67;3.37;;;;;;;28.18;63.24;99159.00;5096984;27;40723;-89
2023/08/16 07:32:25;;;;;;;3.40;3.10;;;;;;;28.39;62.00;99144.41;5096769;27;41758;-80
2023/08/16 07:34:53;;;;;;;3.53;3.23;;;;;;;28.69;60.95;99134.03;5113822;27;42580;-80
2023/08/16 07:37:21;;;;;;;3.47;2.97;;;;;;;29.43;60.31;99174.91;5113447;27;39617;-83
2023/08/16 07:39:49;;;;;;;3.57;3.30;;;;;;;29.54;59.02;99176.19;5114329;27;41625;-85
2023/08/16 07:42:19;;;;;;;3.40;3.10;;;;;;;29.60;57.91;99198.03;5097966;27;42065;-86
2023/08/16 07:44:48;;;;;;;3.13;2.83;;;;;;;29.47;59.25;99168.00;5115602;27;43233;-87
2023/08/16 07:47:16;;;;;;;3.50;3.07;;;;;;;29.28;58.56;99171.53;5098325;27;39171;-89
2023/08/16 07:49:44;;;;;;;3.70;3.40;;;;;;;28.97;58.78;99158.47;5098038;27;40698;-94
2023/08/16 07:52:11;;;;;;;2.93;2.70;;;;;;;28.95;59.74;99182.38;5097858;27;42244;-87
2023/08/16 07:54:39;;;;;;;3.53;2.90;;;;;;;28.71;60.55;99172.81;5097659;27;42299;-86
2023/08/16 07:57:06;;;;;;;3.17;2.93;;;;;;;28.60;61.32;99178.88;5132908;27;40560;-88
2023/08/16 07:59:35;;;;;;;3.60;3.30;;;;;;;28.31;61.89;99158.22;5098235;27;41642;-83
2023/08/16 08:02:06;;;;;;;2.80;2.60;;;;;;;28.18;62.16;99150.81;5098159;27;41814;-92
2023/08/16 08:04:34;;;;;;;4.53;3.60;;;;;;;28.21;61.66;99177.63;5097858;27;41554;-88
2023/08/16 08:07:03;;;;;;;3.50;3.17;;;;;;;28.22;61.28;99181.19;5098053;27;38595;-91
2023/08/16 08:09:31;;;;;;;3.60;3.30;;;;;;;28.12;61.12;99162.47;5096722;27;41090;-90
2023/08/16 08:12:01;;;;;;;3.90;3.50;;;;;;;28.26;60.68;99176.19;5096027;27;42316;-89
2023/08/16 08:14:29;;;;;;;3.43;3.13;;;;;;;28.29;61.39;99151.28;5113926;27;42955;-85
2023/08/16 08:17:03;;;;;;;3.30;3.00;;;;;;;28.33;61.15;99136.19;5097414;27;40190;-86
2023/08/16 08:19:33;;;;;;;4.30;3.90;;;;;;;28.75;61.06;99182.28;5096091;27;42526;-83
2023/08/16 08:22:03;;;;;;;4.07;3.60;;;;;;;28.87;59.86;99185.28;5098771;27;43158;-81
2023/08/16 08:24:30;;;;;;;3.67;3.37;;;;;;;28.91;59.75;99186.56;5099523;27;41379;-85
2023/08/16 08:26:58;;;;;;;4.33;3.93;;;;;;;28.89;58.73;99161.38;5099707;27;39009;-83
2023/08/16 08:29:26;;;;;;;8.57;4.17;;;;;;;29.41;58.75;99192.56;5099544;27;40614;-84
2023/08/16 08:31:56;;;;;;;4.97;3.97;;;;;;;29.67;58.56;99171.56;5099832;27;43121;-87
2023/08/16 08:34:27;;;;;;;4.23;3.83;;;;;;;30.03;57.71;99159.38;5100040;27;42431;-85
2023/08/16 08:37:06;;;;;;;3.83;3.53;;;;;;;30.59;55.57;99137.75;5100941;27;39699;-85
2023/08/16 08:39:37;;;;;;;4.37;3.97;;;;;;;31.40;52.76;99200.84;5099484;27;41969;-84
2023/08/16 08:42:09;;;;;;;4.30;3.90;;;;;;;31.74;51.94;99196.81;5100441;27;42970;-82
2023/08/16 08:44:39;;;;;;;4.97;3.60;;;;;;;31.84;51.29;99198.22;5101050;27;40943;-87
2023/08/16 08:47:08;;;;;;;4.00;3.40;;;;;;;31.93;51.02;99172.19;5101132;27;40022;-84
2023/08/16 08:49:36;;;;;;;3.87;3.57;;;;;;;32.21;51.45;99164.34;5100576;27;40704;-85
2023/08/16 08:52:08;;;;;;;4.60;4.10;;;;;;;32.76;51.97;99205.50;5100594;27;42872;-88
2023/08/16 08:54:37;;;;;;;4.57;4.13;;;;;;;32.95;49.89;99203.56;5100291;27;41495;-83
2023/08/16 08:57:08;;;;;;;4.83;4.33;;;;;;;33.31;50.11;99206.22;5100389;27;40207;-84
2023/08/16 08:59:38;;;;;;;4.50;3.90;;;;;;;33.84;48.89;99200.75;5100204;27;41131;-81
2023/08/16 09:02:08;;;;;;;7.83;3.90;;;;;;;34.43;44.89;99192.50;5100095;27;42212;-81
2023/08/16 09:04:36;;;;;;;3.50;3.20;;;;;;;35.70;44.13;99236.31;5100092;27;42191;-86
2023/08/16 09:07:08;;;;;;;6.93;3.30;;;;;;;37.15;42.35;99251.72;5116916;27;40159;-82
2023/08/16 09:12:23;;;;;;;3.42;3.13;;;;;;;39.92;36.94;99259.31;5098904;27;42039;-84
2023/08/16 09:14:50;;;;;;;3.03;2.55;;;;;;;40.08;35.85;99235.97;5098028;27;42574;-83
2023/08/16 09:17:20;;;;;;;2.83;2.42;;;;;;;40.18;35.14;99262.91;5098388;27;39040;-83
2023/08/16 09:19:48;;;;;;;3.45;2.50;;;;;;;40.04;34.09;99257.09;5098601;27;41741;-83
2023/08/16 09:22:16;;;;;;;2.88;2.47;;;;;;;41.04;33.31;99270.22;5098651;27;41878;-88
2023/08/16 09:24:55;;;;;;;2.28;2.15;;;;;;;42.72;32.05;99276.19;5116982;27;43507;-89
2023/08/16 09:27:23;;;;;;;2.30;2.10;;;;;;;44.51;29.92;99297.63;5100147;27;40116;-85
2023/08/16 09:29:55;;;;;;;2.30;2.05;;;;;;;45.76;27.06;99315.66;5116936;27;41966;-90
2023/08/16 09:32:26;;;;;;;2.45;2.28;;;;;;;46.81;25.99;99318.06;5099523;27;42756;-86
2023/08/16 09:34:54;;;;;;;2.33;2.20;;;;;;;47.34;25.47;99300.28;5100145;27;41378;-87
2023/08/16 09:37:25;;;;;;;2.25;2.15;;;;;;;47.52;24.97;99265.47;5098951;27;39808;-84
2023/08/16 09:39:58;;;;;;;2.70;2.50;;;;;;;47.39;24.98;99258.84;5114748;27;42041;-84
2023/08/16 09:42:33;;;;;;;2.17;2.08;;;;;;;47.19;25.56;99265.91;5113865;27;43504;-79
2023/08/16 09:45:01;;;;;;;2.45;2.25;;;;;;;46.39;26.26;99272.66;5116260;27;43471;-86
2023/08/16 09:47:30;;;;;;;2.38;1.83;;;;;;;45.27;27.01;99266.13;5100290;27;39707;-82
2023/08/16 09:49:59;;;;;;;1.75;1.65;;;;;;;44.07;27.46;99243.06;5115766;27;42765;-81
2023/08/16 09:52:27;;;;;;;1.70;1.60;;;;;;;42.98;27.57;99260.84;5116733;27;42137;-82
2023/08/16 09:54:57;;;;;;;1.70;1.60;;;;;;;41.89;29.65;99227.16;5115980;27;42328;-86
2023/08/16 09:57:26;;;;;;;1.55;1.45;;;;;;;41.27;29.51;99247.34;5099700;27;39659;-83
2023/08/16 09:59:56;;;;;;;1.67;1.58;;;;;;;40.98;30.07;99246.34;5098782;27;41280;-87
2023/08/16 10:02:25;;;;;;;2.17;2.05;;;;;;;40.46;29.61;99222.59;5099736;27;41654;-85
2023/08/16 10:04:54;;;;;;;1.30;1.20;;;;;;;39.96;29.40;99248.47;5099614;27;42410;-86
2023/08/16 10:07:23;;;;;;;1.83;1.70;;;;;;;39.09;31.58;99212.28;5116604;27;39821;-82
2023/08/16 10:09:54;;;;;;;2.05;1.95;;;;;;;38.76;31.82;99224.59;5114665;27;41813;-84
2023/08/16 10:12:22;;;;;;;1.92;1.83;;;;;;;38.51;32.94;99191.25;5114098;27;42494;-77
2023/08/16 10:14:51;;;;;;;1.67;1.58;;;;;;;38.62;33.13;99195.75;5096878;27;41954;-78
2023/08/16 10:17:21;;;;;;;2.22;1.83;;;;;;;38.74;33.69;99199.13;5097145;27;38879;-78
2023/08/16 10:19:52;;;;;;;1.90;1.80;;;;;;;38.59;33.85;99199.06;5097243;27;40423;-78
2023/08/16 10:22:24;;;;;;;2.40;2.20;;;;;;;38.25;33.32;99194.97;5111675;27;42531;-80
2023/08/16 10:25:05;;;;;;;2.03;1.83;;;;;;;37.78;34.90;99162.56;5113075;27;43273;-81
2023/08/16 10:27:38;;;;;;;2.50;2.30;;;;;;;37.69;35.16;99191.81;5097860;27;39970;-82
2023/08/16 10:30:13;;;;;;;2.10;1.90;;;;;;;37.50;35.98;99165.59;5097298;27;40627;-83
2023/08/16 10:32:47;;;;;;;1.92;1.83;;;;;;;37.38;36.19;99180.44;5097971;27;43080;-82
2023/08/16 10:35:16;;;;;;;2.38;2.10;;;;;;;37.16;36.34;99171.38;5097594;27;41048;-82
2023/08/16 10:37:46;;;;;;;1.90;1.80;;;;;;;36.78;37.04;99141.13;5114757;27;39676;-81
2023/08/16 10:40:18;;;;;;;2.50;2.30;;;;;;;36.67;37.25;99168.56;5114940;27;42703;-84
2023/08/16 10:42:56;;;;;;;2.90;2.55;;;;;;;36.41;37.66;99163.81;5115470;27;41832;-82
2023/08/16 10:45:26;;;;;;;2.40;2.20;;;;;;;36.16;38.85;99156.00;5115101;27;42367;-83
2023/08/16 10:47:54;;;;;;;2.47;2.27;;;;;;;35.91;39.09;99152.88;5099083;27;39017;-86
2023/08/16 10:50:32;;;;;;;2.00;1.90;;;;;;;35.67;39.35;99137.59;5114949;27;41884;-80
2023/08/16 10:53:00;;;;;;;2.30;2.10;;;;;;;35.61;40.82;99142.19;5133397;27;43743;-80
2023/08/16 10:55:28;;;;;;;3.50;2.30;;;;;;;35.52;41.01;99138.19;5133220;27;43253;-83
2023/08/16 10:57:56;;;;;;;2.73;2.53;;;;;;;35.54;42.47;99133.25;5108637;27;39218;-86
2023/08/16 11:00:35;;;;;;;3.10;2.77;;;;;;;35.55;40.70;99149.53;5114411;27;41693;-79
2023/08/16 11:03:04;;;;;;;3.00;2.50;;;;;;;35.75;40.20;99149.06;5108265;27;42010;-82
2023/08/16 11:05:34;;;;;;;3.17;2.53;;;;;;;35.81;39.58;99153.56;5120627;27;21023;-81
2023/08/16 11:08:03;;;;;;;3.10;2.80;;;;;;;36.27;40.69;99149.56;5104656;27;39326;-81
2023/08/16 11:10:35;;;;;;;2.57;2.37;;;;;;;36.75;39.72;99134.19;5144502;27;42735;-81
2023/08/16 11:13:04;;;;;;;2.70;2.45;;;;;;;37.43;38.15;99173.28;5124821;27;42082;-81
2023/08/16 11:15:33;;;;;;;2.53;2.25;;;;;;;38.65;37.64;99167.53;5101051;27;42304;-81
2023/08/16 11:18:00;;;;;;;4.93;1.75;;;;;;;38.85;35.73;99186.13;5086236;27;40290;-80
2023/08/16 11:20:29;;;;;;;2.38;2.17;;;;;;;38.79;35.65;99190.84;5145603;27;41598;-80
2023/08/16 11:22:59;;;;;;;4.35;2.08;;;;;;;38.76;35.16;99183.06;5123350;27;43699;-81
2023/08/16 11:25:33;;;;;;;2.50;2.30;;;;;;;39.69;34.78;99182.19;5119126;27;42297;-81
2023/08/16 11:28:01;;;;;;;2.70;2.20;;;;;;;40.80;32.70;99195.84;5121434;27;41008;-81
2023/08/16 11:30:29;;;;;;;2.38;2.17;;;;;;;40.96;32.17;99193.00;5123222;27;41693;-85
2023/08/16 11:32:59;;;;;;;2.78;2.42;;;;;;;40.40;33.47;99188.50;5112584;27;43423;-85
2023/08/16 11:35:27;;;;;;;2.20;2.00;;;;;;;39.92;34.83;99159.44;5096832;27;41454;-87
2023/08/16 11:37:55;;;;;;;2.80;2.60;;;;;;;40.10;34.37;99158.00;5085670;27;39116;-85
2023/08/16 11:40:23;;;;;;;2.50;2.20;;;;;;;40.43;34.26;99148.25;5089558;27;40984;-85
2023/08/16 11:42:50;;;;;;;2.20;1.90;;;;;;;40.53;32.53;99170.41;5100784;27;43393;-86
2023/08/16 11:45:19;;;;;;;2.05;1.85;;;;;;;40.82;32.80;99179.72;5103862;27;41000;-91